sensor_id;sensor_type;location;lat;lon;timestamp;temperature;humidity
28548;DHT22;68292;49.600;8.746;2023-10-31T00:01:27;20.10;64.10
28548;DHT22;68292;49.600;8.746;2023-10-31T00:03:55;20.10;64.10
28548;DHT22;68292;49.600;8.746;2023-10-31T00:06:25;20.10;64.10
28548;DHT22;68292;49.600;8.746;2023-10-31T00:08:53;20.10;64.10
28548;DHT22;68292;49.600;8.746;2023-10-31T00:11:23;20.10;64.10
28548;DHT22;68292;49.600;8.746;2023-10-31T00:13:52;20.10;64.10
28548;DHT22;68292;49.600;8.746;2023-10-31T00:16:23;20.10;64.00
28548;DHT22;68292;49.600;8.746;2023-10-31T00:18:51;20.10;63.90
28548;DHT22;68292;49.600;8.746;2023-10-31T00:21:20;20.10;63.80
28548;DHT22;68292;49.600;8.746;2023-10-31T00:23:49;20.10;63.70
28548;DHT22;68292;49.600;8.746;2023-10-31T00:26:18;20.10;63.60
28548;DHT22;68292;49.600;8.746;2023-10-31T00:28:52;20.10;63.50
28548;DHT22;68292;49.600;8.746;2023-10-31T00:31:22;20.10;63.40
28548;DHT22;68292;49.600;8.746;2023-10-31T00:33:51;20.10;63.40
28548;DHT22;68292;49.600;8.746;2023-10-31T00:36:20;20.10;63.30
28548;DHT22;68292;49.600;8.746;2023-10-31T00:38:49;20.10;63.30
28548;DHT22;68292;49.600;8.746;2023-10-31T00:41:18;20.10;63.20
28548;DHT22;68292;49.600;8.746;2023-10-31T00:43:47;20.10;63.00
28548;DHT22;68292;49.600;8.746;2023-10-31T00:46:16;20.10;63.00
28548;DHT22;68292;49.600;8.746;2023-10-31T00:48:46;20.00;62.80
28548;DHT22;68292;49.600;8.746;2023-10-31T00:51:15;20.00;62.60
28548;DHT22;68292;49.600;8.746;2023-10-31T00:53:45;20.00;62.60
28548;DHT22;68292;49.600;8.746;2023-10-31T00:56:14;20.00;62.40
28548;DHT22;68292;49.600;8.746;2023-10-31T00:58:42;20.00;62.40
28548;DHT22;68292;49.600;8.746;2023-10-31T01:01:12;20.00;62.30
28548;DHT22;68292;49.600;8.746;2023-10-31T01:03:42;20.00;62.20
28548;DHT22;68292;49.600;8.746;2023-10-31T01:06:12;20.00;62.20
28548;DHT22;68292;49.600;8.746;2023-10-31T01:08:41;20.00;62.00
28548;DHT22;68292;49.600;8.746;2023-10-31T01:11:10;20.00;61.90
28548;DHT22;68292;49.600;8.746;2023-10-31T01:13:39;19.90;61.70
28548;DHT22;68292;49.600;8.746;2023-10-31T01:16:08;19.90;61.60
28548;DHT22;68292;49.600;8.746;2023-10-31T01:18:37;19.90;61.50
28548;DHT22;68292;49.600;8.746;2023-10-31T01:21:07;19.90;61.50
28548;DHT22;68292;49.600;8.746;2023-10-31T01:23:38;19.90;61.50
28548;DHT22;68292;49.600;8.746;2023-10-31T01:26:06;19.90;61.30
28548;DHT22;68292;49.600;8.746;2023-10-31T01:28:37;19.90;61.30
28548;DHT22;68292;49.600;8.746;2023-10-31T01:31:06;19.90;61.20
28548;DHT22;68292;49.600;8.746;2023-10-31T01:33:35;19.90;61.10
28548;DHT22;68292;49.600;8.746;2023-10-31T01:36:07;19.90;61.00
28548;DHT22;68292;49.600;8.746;2023-10-31T01:38:39;19.90;60.80
28548;DHT22;68292;49.600;8.746;2023-10-31T01:41:08;19.80;60.70
28548;DHT22;68292;49.600;8.746;2023-10-31T01:43:37;19.80;60.70
28548;DHT22;68292;49.600;8.746;2023-10-31T01:46:09;19.80;60.60
28548;DHT22;68292;49.600;8.746;2023-10-31T01:48:38;19.80;60.60
28548;DHT22;68292;49.600;8.746;2023-10-31T01:51:07;19.80;60.50
28548;DHT22;68292;49.600;8.746;2023-10-31T01:53:38;19.80;60.50
28548;DHT22;68292;49.600;8.746;2023-10-31T01:56:08;19.80;60.50
28548;DHT22;68292;49.600;8.746;2023-10-31T01:58:37;19.80;60.40
28548;DHT22;68292;49.600;8.746;2023-10-31T02:01:06;19.80;60.40
28548;DHT22;68292;49.600;8.746;2023-10-31T02:03:35;19.70;60.40
28548;DHT22;68292;49.600;8.746;2023-10-31T02:06:05;19.70;60.40
28548;DHT22;68292;49.600;8.746;2023-10-31T02:08:34;19.70;60.30
28548;DHT22;68292;49.600;8.746;2023-10-31T02:11:05;19.70;60.20
28548;DHT22;68292;49.600;8.746;2023-10-31T02:13:37;19.70;60.10
28548;DHT22;68292;49.600;8.746;2023-10-31T02:16:06;19.70;60.10
28548;DHT22;68292;49.600;8.746;2023-10-31T02:18:35;19.70;60.00
28548;DHT22;68292;49.600;8.746;2023-10-31T02:21:04;19.70;60.00
28548;DHT22;68292;49.600;8.746;2023-10-31T02:23:34;19.70;60.00
28548;DHT22;68292;49.600;8.746;2023-10-31T02:26:03;19.70;59.80
28548;DHT22;68292;49.600;8.746;2023-10-31T02:28:32;19.70;59.80
28548;DHT22;68292;49.600;8.746;2023-10-31T02:31:01;19.70;59.70
28548;DHT22;68292;49.600;8.746;2023-10-31T02:33:29;19.70;59.70
28548;DHT22;68292;49.600;8.746;2023-10-31T02:35:58;19.70;59.80
28548;DHT22;68292;49.600;8.746;2023-10-31T02:38:27;19.70;59.60
28548;DHT22;68292;49.600;8.746;2023-10-31T02:40:57;19.60;59.50
28548;DHT22;68292;49.600;8.746;2023-10-31T02:43:25;19.60;59.40
28548;DHT22;68292;49.600;8.746;2023-10-31T02:45:54;19.60;59.50
28548;DHT22;68292;49.600;8.746;2023-10-31T02:48:23;19.60;59.40
28548;DHT22;68292;49.600;8.746;2023-10-31T02:50:52;19.60;59.40
28548;DHT22;68292;49.600;8.746;2023-10-31T02:53:21;19.60;59.30
28548;DHT22;68292;49.600;8.746;2023-10-31T02:55:49;19.60;59.40
28548;DHT22;68292;49.600;8.746;2023-10-31T02:58:19;19.60;59.30
28548;DHT22;68292;49.600;8.746;2023-10-31T03:00:48;19.60;59.20
28548;DHT22;68292;49.600;8.746;2023-10-31T03:03:17;19.60;59.40
28548;DHT22;68292;49.600;8.746;2023-10-31T03:05:45;19.60;59.30
28548;DHT22;68292;49.600;8.746;2023-10-31T03:08:15;19.50;59.30
28548;DHT22;68292;49.600;8.746;2023-10-31T03:10:49;19.50;59.20
28548;DHT22;68292;49.600;8.746;2023-10-31T03:13:20;19.50;59.20
28548;DHT22;68292;49.600;8.746;2023-10-31T03:15:49;19.50;59.20
28548;DHT22;68292;49.600;8.746;2023-10-31T03:18:17;19.50;59.30
28548;DHT22;68292;49.600;8.746;2023-10-31T03:20:47;19.50;59.30
28548;DHT22;68292;49.600;8.746;2023-10-31T03:23:16;19.50;59.30
28548;DHT22;68292;49.600;8.746;2023-10-31T03:25:45;19.50;59.40
28548;DHT22;68292;49.600;8.746;2023-10-31T03:28:19;19.50;59.40
28548;DHT22;68292;49.600;8.746;2023-10-31T03:30:50;19.50;59.20
28548;DHT22;68292;49.600;8.746;2023-10-31T03:33:19;19.50;59.40
28548;DHT22;68292;49.600;8.746;2023-10-31T03:35:48;19.50;59.40
28548;DHT22;68292;49.600;8.746;2023-10-31T03:38:17;19.50;59.30
28548;DHT22;68292;49.600;8.746;2023-10-31T03:40:46;19.50;59.30
28548;DHT22;68292;49.600;8.746;2023-10-31T03:43:15;19.50;59.30
28548;DHT22;68292;49.600;8.746;2023-10-31T03:45:45;19.50;59.30
28548;DHT22;68292;49.600;8.746;2023-10-31T03:48:16;19.50;59.20
28548;DHT22;68292;49.600;8.746;2023-10-31T03:50:44;19.50;59.30
28548;DHT22;68292;49.600;8.746;2023-10-31T03:53:13;19.50;59.20
28548;DHT22;68292;49.600;8.746;2023-10-31T03:55:42;19.50;59.20
28548;DHT22;68292;49.600;8.746;2023-10-31T03:58:11;19.50;59.10
28548;DHT22;68292;49.600;8.746;2023-10-31T04:00:40;19.50;59.10
28548;DHT22;68292;49.600;8.746;2023-10-31T04:03:12;19.50;59.00
28548;DHT22;68292;49.600;8.746;2023-10-31T04:05:41;19.50;58.90
28548;DHT22;68292;49.600;8.746;2023-10-31T04:08:09;19.50;58.90
28548;DHT22;68292;49.600;8.746;2023-10-31T04:10:38;19.50;58.90
28548;DHT22;68292;49.600;8.746;2023-10-31T04:13:07;19.50;59.00
28548;DHT22;68292;49.600;8.746;2023-10-31T04:15:36;19.50;59.00
28548;DHT22;68292;49.600;8.746;2023-10-31T04:18:05;19.50;58.90
28548;DHT22;68292;49.600;8.746;2023-10-31T04:20:35;19.50;58.90
28548;DHT22;68292;49.600;8.746;2023-10-31T04:23:03;19.50;58.80
28548;DHT22;68292;49.600;8.746;2023-10-31T04:25:33;19.50;58.80
28548;DHT22;68292;49.600;8.746;2023-10-31T04:28:02;19.50;58.80
28548;DHT22;68292;49.600;8.746;2023-10-31T04:30:31;19.50;58.80
28548;DHT22;68292;49.600;8.746;2023-10-31T04:32:59;19.50;58.70
28548;DHT22;68292;49.600;8.746;2023-10-31T04:35:28;19.50;58.70
28548;DHT22;68292;49.600;8.746;2023-10-31T04:37:58;19.50;58.60
28548;DHT22;68292;49.600;8.746;2023-10-31T04:40:27;19.40;58.50
28548;DHT22;68292;49.600;8.746;2023-10-31T04:42:56;19.40;58.60
28548;DHT22;68292;49.600;8.746;2023-10-31T04:45:24;19.40;58.60
28548;DHT22;68292;49.600;8.746;2023-10-31T04:47:54;19.40;58.60
28548;DHT22;68292;49.600;8.746;2023-10-31T04:50:23;19.40;58.60
28548;DHT22;68292;49.600;8.746;2023-10-31T04:52:51;19.40;58.60
28548;DHT22;68292;49.600;8.746;2023-10-31T04:55:21;19.40;58.60
28548;DHT22;68292;49.600;8.746;2023-10-31T04:57:50;19.40;58.50
28548;DHT22;68292;49.600;8.746;2023-10-31T05:00:19;19.40;58.60
28548;DHT22;68292;49.600;8.746;2023-10-31T05:02:48;19.40;58.60
28548;DHT22;68292;49.600;8.746;2023-10-31T05:05:16;19.40;58.60
28548;DHT22;68292;49.600;8.746;2023-10-31T05:07:45;19.40;58.60
28548;DHT22;68292;49.600;8.746;2023-10-31T05:10:14;19.40;58.60
28548;DHT22;68292;49.600;8.746;2023-10-31T05:12:44;19.40;58.60
28548;DHT22;68292;49.600;8.746;2023-10-31T05:15:13;19.40;58.40
28548;DHT22;68292;49.600;8.746;2023-10-31T05:17:42;19.40;58.40
28548;DHT22;68292;49.600;8.746;2023-10-31T05:20:11;19.40;58.40
28548;DHT22;68292;49.600;8.746;2023-10-31T05:22:41;19.40;58.40
28548;DHT22;68292;49.600;8.746;2023-10-31T05:25:10;19.40;58.40
28548;DHT22;68292;49.600;8.746;2023-10-31T05:27:39;19.40;58.40
28548;DHT22;68292;49.600;8.746;2023-10-31T05:30:10;19.40;58.40
28548;DHT22;68292;49.600;8.746;2023-10-31T05:32:41;19.40;58.40
28548;DHT22;68292;49.600;8.746;2023-10-31T05:35:10;19.40;58.50
28548;DHT22;68292;49.600;8.746;2023-10-31T05:37:39;19.40;58.60
28548;DHT22;68292;49.600;8.746;2023-10-31T05:40:09;19.40;58.60
28548;DHT22;68292;49.600;8.746;2023-10-31T05:42:39;19.40;58.60
28548;DHT22;68292;49.600;8.746;2023-10-31T05:45:10;19.40;58.70
28548;DHT22;68292;49.600;8.746;2023-10-31T05:47:39;19.40;58.60
28548;DHT22;68292;49.600;8.746;2023-10-31T05:50:08;19.40;58.60
28548;DHT22;68292;49.600;8.746;2023-10-31T05:52:37;19.30;58.60
28548;DHT22;68292;49.600;8.746;2023-10-31T05:55:07;19.30;58.60
28548;DHT22;68292;49.600;8.746;2023-10-31T05:57:36;19.30;58.60
28548;DHT22;68292;49.600;8.746;2023-10-31T06:00:06;19.30;58.50
28548;DHT22;68292;49.600;8.746;2023-10-31T06:02:40;19.40;58.50
28548;DHT22;68292;49.600;8.746;2023-10-31T06:05:08;19.40;58.40
28548;DHT22;68292;49.600;8.746;2023-10-31T06:07:37;19.40;58.50
28548;DHT22;68292;49.600;8.746;2023-10-31T06:10:07;19.30;58.40
28548;DHT22;68292;49.600;8.746;2023-10-31T06:12:36;19.30;58.40
28548;DHT22;68292;49.600;8.746;2023-10-31T06:15:06;19.30;58.40
28548;DHT22;68292;49.600;8.746;2023-10-31T06:17:36;19.30;58.40
28548;DHT22;68292;49.600;8.746;2023-10-31T06:20:07;19.30;58.40
28548;DHT22;68292;49.600;8.746;2023-10-31T06:22:37;19.30;58.30
28548;DHT22;68292;49.600;8.746;2023-10-31T06:25:06;19.30;58.30
28548;DHT22;68292;49.600;8.746;2023-10-31T06:27:35;19.30;58.30
28548;DHT22;68292;49.600;8.746;2023-10-31T06:30:05;19.30;58.30
28548;DHT22;68292;49.600;8.746;2023-10-31T06:32:50;19.30;58.30
28548;DHT22;68292;49.600;8.746;2023-10-31T06:35:20;19.30;58.30
28548;DHT22;68292;49.600;8.746;2023-10-31T06:37:51;19.30;58.30
28548;DHT22;68292;49.600;8.746;2023-10-31T06:40:21;19.30;58.30
28548;DHT22;68292;49.600;8.746;2023-10-31T06:42:49;19.30;58.20
28548;DHT22;68292;49.600;8.746;2023-10-31T06:45:18;19.30;58.30
28548;DHT22;68292;49.600;8.746;2023-10-31T06:47:47;19.30;58.30
28548;DHT22;68292;49.600;8.746;2023-10-31T06:50:16;19.30;58.40
28548;DHT22;68292;49.600;8.746;2023-10-31T06:52:48;19.30;58.40
28548;DHT22;68292;49.600;8.746;2023-10-31T06:55:17;19.30;58.40
28548;DHT22;68292;49.600;8.746;2023-10-31T06:57:45;19.30;58.40
28548;DHT22;68292;49.600;8.746;2023-10-31T07:00:15;19.30;58.40
28548;DHT22;68292;49.600;8.746;2023-10-31T07:02:44;19.30;58.50
28548;DHT22;68292;49.600;8.746;2023-10-31T07:05:12;19.30;58.50
28548;DHT22;68292;49.600;8.746;2023-10-31T07:07:42;19.30;58.50
28548;DHT22;68292;49.600;8.746;2023-10-31T07:10:12;19.30;58.50
28548;DHT22;68292;49.600;8.746;2023-10-31T07:12:41;19.30;58.40
28548;DHT22;68292;49.600;8.746;2023-10-31T07:15:10;19.30;58.50
28548;DHT22;68292;49.600;8.746;2023-10-31T07:17:39;19.30;58.50
28548;DHT22;68292;49.600;8.746;2023-10-31T07:20:08;19.30;58.50
28548;DHT22;68292;49.600;8.746;2023-10-31T07:22:37;19.30;58.50
28548;DHT22;68292;49.600;8.746;2023-10-31T07:25:07;19.30;58.40
28548;DHT22;68292;49.600;8.746;2023-10-31T07:27:38;19.30;58.30
28548;DHT22;68292;49.600;8.746;2023-10-31T07:30:07;19.30;58.20
28548;DHT22;68292;49.600;8.746;2023-10-31T07:32:36;19.30;58.20
28548;DHT22;68292;49.600;8.746;2023-10-31T07:35:07;19.30;58.30
28548;DHT22;68292;49.600;8.746;2023-10-31T07:37:36;19.30;58.20
28548;DHT22;68292;49.600;8.746;2023-10-31T07:40:06;19.30;58.20
28548;DHT22;68292;49.600;8.746;2023-10-31T07:42:37;19.30;58.30
28548;DHT22;68292;49.600;8.746;2023-10-31T07:45:07;19.30;58.30
28548;DHT22;68292;49.600;8.746;2023-10-31T07:47:37;19.30;58.20
28548;DHT22;68292;49.600;8.746;2023-10-31T07:50:07;19.30;58.20
28548;DHT22;68292;49.600;8.746;2023-10-31T07:52:36;19.30;58.30
28548;DHT22;68292;49.600;8.746;2023-10-31T07:55:06;19.30;58.30
28548;DHT22;68292;49.600;8.746;2023-10-31T07:57:37;19.30;58.30
28548;DHT22;68292;49.600;8.746;2023-10-31T08:00:10;19.30;58.40
28548;DHT22;68292;49.600;8.746;2023-10-31T08:02:40;19.30;58.30
28548;DHT22;68292;49.600;8.746;2023-10-31T08:05:10;19.30;58.40
28548;DHT22;68292;49.600;8.746;2023-10-31T08:07:39;19.30;58.30
28548;DHT22;68292;49.600;8.746;2023-10-31T08:10:08;19.30;58.40
28548;DHT22;68292;49.600;8.746;2023-10-31T08:12:39;19.30;58.40
28548;DHT22;68292;49.600;8.746;2023-10-31T08:15:08;19.40;58.40
28548;DHT22;68292;49.600;8.746;2023-10-31T08:17:38;19.30;58.40
28548;DHT22;68292;49.600;8.746;2023-10-31T08:20:07;19.40;58.50
28548;DHT22;68292;49.600;8.746;2023-10-31T08:22:36;19.40;58.50
28548;DHT22;68292;49.600;8.746;2023-10-31T08:25:06;19.30;58.50
28548;DHT22;68292;49.600;8.746;2023-10-31T08:27:35;19.40;58.50
28548;DHT22;68292;49.600;8.746;2023-10-31T08:30:07;19.40;58.40
28548;DHT22;68292;49.600;8.746;2023-10-31T08:32:37;19.40;58.40
28548;DHT22;68292;49.600;8.746;2023-10-31T08:35:07;19.40;58.40
28548;DHT22;68292;49.600;8.746;2023-10-31T08:37:36;19.40;59.00
28548;DHT22;68292;49.600;8.746;2023-10-31T08:40:06;19.40;58.30
28548;DHT22;68292;49.600;8.746;2023-10-31T08:42:36;19.40;58.20
28548;DHT22;68292;49.600;8.746;2023-10-31T08:45:07;19.40;58.20
28548;DHT22;68292;49.600;8.746;2023-10-31T08:47:36;19.40;58.10
28548;DHT22;68292;49.600;8.746;2023-10-31T08:50:07;19.40;58.10
28548;DHT22;68292;49.600;8.746;2023-10-31T08:52:37;19.40;58.00
28548;DHT22;68292;49.600;8.746;2023-10-31T08:55:06;19.40;58.10
28548;DHT22;68292;49.600;8.746;2023-10-31T08:57:35;19.40;58.00
28548;DHT22;68292;49.600;8.746;2023-10-31T09:00:07;19.40;58.00
28548;DHT22;68292;49.600;8.746;2023-10-31T09:02:37;19.40;57.90
28548;DHT22;68292;49.600;8.746;2023-10-31T09:05:06;19.40;57.90
28548;DHT22;68292;49.600;8.746;2023-10-31T09:07:35;19.40;57.90
28548;DHT22;68292;49.600;8.746;2023-10-31T09:10:05;19.40;57.90
28548;DHT22;68292;49.600;8.746;2023-10-31T09:12:34;19.40;57.80
28548;DHT22;68292;49.600;8.746;2023-10-31T09:15:04;19.50;57.80
28548;DHT22;68292;49.600;8.746;2023-10-31T09:17:35;19.40;57.70
28548;DHT22;68292;49.600;8.746;2023-10-31T09:20:04;19.50;57.60
28548;DHT22;68292;49.600;8.746;2023-10-31T09:22:35;19.50;57.70
28548;DHT22;68292;49.600;8.746;2023-10-31T09:25:04;19.40;57.60
28548;DHT22;68292;49.600;8.746;2023-10-31T09:27:33;19.40;57.60
28548;DHT22;68292;49.600;8.746;2023-10-31T09:30:02;19.50;57.70
28548;DHT22;68292;49.600;8.746;2023-10-31T09:32:32;19.40;57.70
28548;DHT22;68292;49.600;8.746;2023-10-31T09:35:02;19.40;57.70
28548;DHT22;68292;49.600;8.746;2023-10-31T09:37:31;19.40;57.70
28548;DHT22;68292;49.600;8.746;2023-10-31T09:40:00;19.40;57.70
28548;DHT22;68292;49.600;8.746;2023-10-31T09:42:29;19.40;57.70
28548;DHT22;68292;49.600;8.746;2023-10-31T09:44:58;19.50;57.70
28548;DHT22;68292;49.600;8.746;2023-10-31T09:47:29;19.50;57.70
28548;DHT22;68292;49.600;8.746;2023-10-31T09:49:59;19.50;57.60
28548;DHT22;68292;49.600;8.746;2023-10-31T09:52:29;19.40;57.60
28548;DHT22;68292;49.600;8.746;2023-10-31T09:54:59;19.50;57.60
28548;DHT22;68292;49.600;8.746;2023-10-31T09:57:28;19.50;57.70
28548;DHT22;68292;49.600;8.746;2023-10-31T09:59:57;19.50;57.80
28548;DHT22;68292;49.600;8.746;2023-10-31T10:02:26;19.50;57.80
28548;DHT22;68292;49.600;8.746;2023-10-31T10:04:56;19.50;57.90
28548;DHT22;68292;49.600;8.746;2023-10-31T10:07:25;19.50;58.00
28548;DHT22;68292;49.600;8.746;2023-10-31T10:09:56;19.50;58.10
28548;DHT22;68292;49.600;8.746;2023-10-31T10:12:26;19.60;58.20
28548;DHT22;68292;49.600;8.746;2023-10-31T10:14:57;19.60;58.30
28548;DHT22;68292;49.600;8.746;2023-10-31T10:17:27;19.60;58.20
28548;DHT22;68292;49.600;8.746;2023-10-31T10:20:06;19.70;58.10
28548;DHT22;68292;49.600;8.746;2023-10-31T10:22:37;19.70;57.70
28548;DHT22;68292;49.600;8.746;2023-10-31T10:25:08;19.80;57.90
28548;DHT22;68292;49.600;8.746;2023-10-31T10:27:39;19.80;57.80
28548;DHT22;68292;49.600;8.746;2023-10-31T10:30:09;19.90;57.80
28548;DHT22;68292;49.600;8.746;2023-10-31T10:32:39;19.90;57.60
28548;DHT22;68292;49.600;8.746;2023-10-31T10:35:09;19.90;57.60
28548;DHT22;68292;49.600;8.746;2023-10-31T10:37:38;19.90;57.60
28548;DHT22;68292;49.600;8.746;2023-10-31T10:40:10;20.00;57.70
28548;DHT22;68292;49.600;8.746;2023-10-31T10:42:44;20.00;57.80
28548;DHT22;68292;49.600;8.746;2023-10-31T10:45:16;20.00;57.70
28548;DHT22;68292;49.600;8.746;2023-10-31T10:47:47;20.10;57.90
28548;DHT22;68292;49.600;8.746;2023-10-31T10:50:18;20.10;57.70
28548;DHT22;68292;49.600;8.746;2023-10-31T10:52:53;20.10;57.50
28548;DHT22;68292;49.600;8.746;2023-10-31T10:55:27;20.10;57.50
28548;DHT22;68292;49.600;8.746;2023-10-31T10:58:01;20.10;57.50
28548;DHT22;68292;49.600;8.746;2023-10-31T11:00:32;20.10;57.20
28548;DHT22;68292;49.600;8.746;2023-10-31T11:03:03;20.10;57.30
28548;DHT22;68292;49.600;8.746;2023-10-31T11:05:32;20.20;57.30
28548;DHT22;68292;49.600;8.746;2023-10-31T11:08:02;20.20;57.40
28548;DHT22;68292;49.600;8.746;2023-10-31T11:10:34;20.20;57.40
28548;DHT22;68292;49.600;8.746;2023-10-31T11:13:04;20.20;57.40
28548;DHT22;68292;49.600;8.746;2023-10-31T11:15:33;20.10;57.30
28548;DHT22;68292;49.600;8.746;2023-10-31T11:18:02;20.20;57.40
28548;DHT22;68292;49.600;8.746;2023-10-31T11:20:32;20.10;57.40
28548;DHT22;68292;49.600;8.746;2023-10-31T11:23:02;20.20;57.30
28548;DHT22;68292;49.600;8.746;2023-10-31T11:25:42;20.10;57.40
28548;DHT22;68292;49.600;8.746;2023-10-31T11:28:13;20.10;57.30
28548;DHT22;68292;49.600;8.746;2023-10-31T11:30:43;20.10;57.40
28548;DHT22;68292;49.600;8.746;2023-10-31T11:33:15;20.10;57.30
28548;DHT22;68292;49.600;8.746;2023-10-31T11:35:50;20.10;57.40
28548;DHT22;68292;49.600;8.746;2023-10-31T11:38:31;20.10;57.40
28548;DHT22;68292;49.600;8.746;2023-10-31T11:41:04;20.20;57.50
28548;DHT22;68292;49.600;8.746;2023-10-31T11:43:39;20.10;57.30
28548;DHT22;68292;49.600;8.746;2023-10-31T11:46:23;20.20;57.50
28548;DHT22;68292;49.600;8.746;2023-10-31T11:48:54;20.20;57.50
28548;DHT22;68292;49.600;8.746;2023-10-31T11:51:25;20.20;57.60
28548;DHT22;68292;49.600;8.746;2023-10-31T11:53:54;20.20;57.70
28548;DHT22;68292;49.600;8.746;2023-10-31T11:56:24;20.20;57.80
28548;DHT22;68292;49.600;8.746;2023-10-31T11:59:01;20.20;57.70
28548;DHT22;68292;49.600;8.746;2023-10-31T12:01:31;20.20;57.70
28548;DHT22;68292;49.600;8.746;2023-10-31T12:04:00;20.20;57.70
28548;DHT22;68292;49.600;8.746;2023-10-31T12:06:34;20.20;57.60
28548;DHT22;68292;49.600;8.746;2023-10-31T12:09:03;20.20;57.30
28548;DHT22;68292;49.600;8.746;2023-10-31T12:11:44;20.20;57.30
28548;DHT22;68292;49.600;8.746;2023-10-31T12:14:18;20.20;57.00
28548;DHT22;68292;49.600;8.746;2023-10-31T12:16:48;20.20;56.90
28548;DHT22;68292;49.600;8.746;2023-10-31T12:19:20;20.20;57.10
28548;DHT22;68292;49.600;8.746;2023-10-31T12:21:49;20.20;56.80
28548;DHT22;68292;49.600;8.746;2023-10-31T12:24:18;20.20;56.90
28548;DHT22;68292;49.600;8.746;2023-10-31T12:26:49;20.20;57.00
28548;DHT22;68292;49.600;8.746;2023-10-31T12:29:20;20.20;56.80
28548;DHT22;68292;49.600;8.746;2023-10-31T12:31:50;20.20;56.80
28548;DHT22;68292;49.600;8.746;2023-10-31T12:34:22;20.20;56.70
28548;DHT22;68292;49.600;8.746;2023-10-31T12:36:53;20.20;56.80
28548;DHT22;68292;49.600;8.746;2023-10-31T12:39:24;20.20;56.80
28548;DHT22;68292;49.600;8.746;2023-10-31T12:41:56;20.20;56.70
28548;DHT22;68292;49.600;8.746;2023-10-31T12:44:26;20.20;56.60
28548;DHT22;68292;49.600;8.746;2023-10-31T12:46:56;20.20;56.80
28548;DHT22;68292;49.600;8.746;2023-10-31T12:49:25;20.20;56.80
28548;DHT22;68292;49.600;8.746;2023-10-31T12:51:56;20.20;56.80
28548;DHT22;68292;49.600;8.746;2023-10-31T12:54:34;20.20;56.80
28548;DHT22;68292;49.600;8.746;2023-10-31T12:57:06;20.20;57.20
28548;DHT22;68292;49.600;8.746;2023-10-31T12:59:37;20.20;56.80
28548;DHT22;68292;49.600;8.746;2023-10-31T13:02:07;20.20;56.90
28548;DHT22;68292;49.600;8.746;2023-10-31T13:04:38;20.20;57.00
28548;DHT22;68292;49.600;8.746;2023-10-31T13:07:07;20.20;57.00
28548;DHT22;68292;49.600;8.746;2023-10-31T13:09:37;20.20;56.90
28548;DHT22;68292;49.600;8.746;2023-10-31T13:12:09;20.20;56.90
28548;DHT22;68292;49.600;8.746;2023-10-31T13:14:39;20.20;56.80
28548;DHT22;68292;49.600;8.746;2023-10-31T13:17:07;20.20;56.90
28548;DHT22;68292;49.600;8.746;2023-10-31T13:19:36;20.20;56.90
28548;DHT22;68292;49.600;8.746;2023-10-31T13:22:05;20.20;56.90
28548;DHT22;68292;49.600;8.746;2023-10-31T13:24:34;20.20;57.00
28548;DHT22;68292;49.600;8.746;2023-10-31T13:27:03;20.20;57.10
28548;DHT22;68292;49.600;8.746;2023-10-31T13:29:35;20.20;57.20
28548;DHT22;68292;49.600;8.746;2023-10-31T13:32:04;20.20;57.00
28548;DHT22;68292;49.600;8.746;2023-10-31T13:34:33;20.20;57.10
28548;DHT22;68292;49.600;8.746;2023-10-31T13:37:03;20.20;57.10
28548;DHT22;68292;49.600;8.746;2023-10-31T13:39:31;20.20;57.10
28548;DHT22;68292;49.600;8.746;2023-10-31T13:42:00;20.20;57.00
28548;DHT22;68292;49.600;8.746;2023-10-31T13:44:29;20.20;56.90
28548;DHT22;68292;49.600;8.746;2023-10-31T13:46:59;20.20;56.80
28548;DHT22;68292;49.600;8.746;2023-10-31T13:49:28;20.20;56.60
28548;DHT22;68292;49.600;8.746;2023-10-31T13:51:57;20.20;56.60
28548;DHT22;68292;49.600;8.746;2023-10-31T13:54:26;20.20;56.50
28548;DHT22;68292;49.600;8.746;2023-10-31T13:56:55;20.20;56.50
28548;DHT22;68292;49.600;8.746;2023-10-31T13:59:24;20.20;56.40
28548;DHT22;68292;49.600;8.746;2023-10-31T14:01:53;20.20;56.40
28548;DHT22;68292;49.600;8.746;2023-10-31T14:04:23;20.20;56.30
28548;DHT22;68292;49.600;8.746;2023-10-31T14:06:52;20.20;56.30
28548;DHT22;68292;49.600;8.746;2023-10-31T14:09:21;20.20;56.40
28548;DHT22;68292;49.600;8.746;2023-10-31T14:11:49;20.20;56.30
28548;DHT22;68292;49.600;8.746;2023-10-31T14:14:18;20.20;56.30
28548;DHT22;68292;49.600;8.746;2023-10-31T14:16:48;20.20;56.30
28548;DHT22;68292;49.600;8.746;2023-10-31T14:19:17;20.20;56.30
28548;DHT22;68292;49.600;8.746;2023-10-31T14:21:47;20.20;56.30
28548;DHT22;68292;49.600;8.746;2023-10-31T14:24:16;20.20;56.10
28548;DHT22;68292;49.600;8.746;2023-10-31T14:26:45;20.20;56.20
28548;DHT22;68292;49.600;8.746;2023-10-31T14:29:14;20.20;56.20
28548;DHT22;68292;49.600;8.746;2023-10-31T14:31:45;20.10;56.20
28548;DHT22;68292;49.600;8.746;2023-10-31T14:34:14;20.20;56.30
28548;DHT22;68292;49.600;8.746;2023-10-31T14:36:43;20.10;56.10
28548;DHT22;68292;49.600;8.746;2023-10-31T14:39:13;20.20;56.10
28548;DHT22;68292;49.600;8.746;2023-10-31T14:41:41;20.20;56.10
28548;DHT22;68292;49.600;8.746;2023-10-31T14:44:10;20.20;56.10
28548;DHT22;68292;49.600;8.746;2023-10-31T14:46:39;20.10;56.10
28548;DHT22;68292;49.600;8.746;2023-10-31T14:49:08;20.20;56.20
28548;DHT22;68292;49.600;8.746;2023-10-31T14:51:37;20.10;56.20
28548;DHT22;68292;49.600;8.746;2023-10-31T14:54:05;20.10;56.10
28548;DHT22;68292;49.600;8.746;2023-10-31T14:56:36;20.10;56.10
28548;DHT22;68292;49.600;8.746;2023-10-31T14:59:05;20.20;56.20
28548;DHT22;68292;49.600;8.746;2023-10-31T15:01:34;20.10;56.20
28548;DHT22;68292;49.600;8.746;2023-10-31T15:04:02;20.10;56.30
28548;DHT22;68292;49.600;8.746;2023-10-31T15:06:32;20.10;56.30
28548;DHT22;68292;49.600;8.746;2023-10-31T15:09:00;20.10;56.30
28548;DHT22;68292;49.600;8.746;2023-10-31T15:11:30;20.10;56.30
28548;DHT22;68292;49.600;8.746;2023-10-31T15:14:01;20.10;56.30
28548;DHT22;68292;49.600;8.746;2023-10-31T15:16:30;20.10;56.10
28548;DHT22;68292;49.600;8.746;2023-10-31T15:18:59;20.10;56.10
28548;DHT22;68292;49.600;8.746;2023-10-31T15:21:28;20.10;56.10
28548;DHT22;68292;49.600;8.746;2023-10-31T15:23:57;20.10;56.10
28548;DHT22;68292;49.600;8.746;2023-10-31T15:26:26;20.10;56.10
28548;DHT22;68292;49.600;8.746;2023-10-31T15:28:56;20.10;56.10
28548;DHT22;68292;49.600;8.746;2023-10-31T15:31:26;20.10;56.10
28548;DHT22;68292;49.600;8.746;2023-10-31T15:33:55;20.10;56.10
28548;DHT22;68292;49.600;8.746;2023-10-31T15:36:23;20.10;56.20
28548;DHT22;68292;49.600;8.746;2023-10-31T15:38:52;20.10;56.30
28548;DHT22;68292;49.600;8.746;2023-10-31T15:41:21;20.10;56.30
28548;DHT22;68292;49.600;8.746;2023-10-31T15:43:50;20.10;56.30
28548;DHT22;68292;49.600;8.746;2023-10-31T15:46:20;20.10;56.30